Meteo Giornale » Osservazioni meteo Croazia » Pula Aerodrome

ore: 15:30 - Osservazioni Meteo Pula Aerodrome
Lat. 45° 54' N Lon. 13° 55' E Alt. 63 metri s.l.m.

sereno Europe/Zagreb

33 °C

Sereno

Temp. 24 Ore

20 °C

33 °C

Ovest

20.3 Km/h

Dew point 16 °C

Umidità 36 %

Visibilità  10 Km

Il sole sorge alle ore 05:35

Il sole tramonta alle ore 20:46

Data e Ora Cielo e Fenomeni T °C DP °C Um. % Pres. hPa Vis. km Vento km/h
Oggi h: 15:30 sereno Sereno 33 16 36 1018 10 O 20.3
Oggi h: 15:00 sereno Sereno 33 17 38 1018 10 O 18.5
Oggi h: 14:30 sereno Sereno 33 16 36 1018 10 O/SO 13
Oggi h: 14:00 sereno Sereno 33 15 33 1019 10 SO 14.8
Oggi h: 13:30 sereno Sereno 33 16 36 1019 10 N 9.3
Oggi h: 13:00 sereno Sereno 33 13 29 1019 10 E 18.5
Oggi h: 12:30 sereno Sereno 33 13 29 1019 10 E 20.3
Oggi h: 12:00 sereno Sereno 33 13 29 1019 10 E 18.5
Oggi h: 11:30 sereno Sereno 32 14 33 1019 10 E/SE 14.8
Oggi h: 11:00 sereno Sereno 33 12 27 1019 10 E 14.8
Oggi h: 10:30 sereno Sereno 32 13 31 1019 10 N 5.5
Oggi h: 10:00 sereno Sereno 31 14 35 1020 10 N 7.4
Oggi h: 09:30 sereno Sereno 31 13 33 1020 10 N 3.7
Oggi h: 09:00 sereno Sereno 31 14 35 1020 10 N 5.5
Oggi h: 08:30 sereno Sereno 29 15 42 1019 10 NE 9.3
Oggi h: 08:00 sereno Sereno 28 15 45 1019 10 NE 11.1
Oggi h: 07:30 sereno Sereno 27 15 47 1019 10 NE 11.1
Oggi h: 07:00 sereno Sereno 24 17 64 1019 10 N 1.8
Oggi h: 06:00 sereno Sereno 20 15 72 1019 10 N 1.8
Oggi h: 05:30 sereno Sereno 20 15 72 1019 10 N 3.7
Oggi h: 05:00 sereno Sereno 22 14 60 1019 10 N 3.7
Oggi h: 04:30 sereno Sereno 23 14 56 1019 10 N 5.5
Oggi h: 04:00 sereno Sereno 22 15 64 1019 10 NE 11.1
Oggi h: 03:30 sereno Sereno 22 15 64 1019 10 E/NE 9.3
Oggi h: 03:00 sereno Sereno 24 14 53 1019 10 NE 11.1
Oggi h: 02:30 sereno Sereno 23 15 60 1020 10 E/NE 7.4
Oggi h: 02:00 sereno Sereno 24 15 57 1020 10 NE 11.1
Oggi h: 01:30 sereno Sereno 24 15 57 1020 10 NE 9.3
Oggi h: 01:00 sereno Sereno 24 16 60 1020 10 E 7.4
Oggi h: 00:30 sereno Sereno 25 16 57 1020 10 NE 14.8
Oggi h: 00:00 sereno Sereno 25 16 57 1020 10 NE 13
Ieri h: 23:30 sereno Sereno 24 16 60 1020 10 N 3.7
Ieri h: 23:00 sereno Sereno 24 17 64 1020 10 N 5.5
Ieri h: 22:30 sereno Sereno 25 17 61 1020 10 N 5.5
Ieri h: 22:00 sereno Sereno 25 17 61 1020 10 E/NE 9.3
Ieri h: 21:30 sereno Sereno 26 17 57 1020 10 N/NE 11.1
Ieri h: 21:00 sereno Sereno 26 19 65 1020 10 N/NE 7.4
Ieri h: 20:30 sereno Sereno 26 20 69 1019 10 N 3.7
Ieri h: 20:00 sereno Sereno 28 20 61 1019 10 N 5.5
Ieri h: 19:30 sereno Sereno 29 19 54 1019 10 O 7.4
Ieri h: 19:00 sereno Sereno 30 19 51 1019 10 O 11.1
Ieri h: 18:30 sereno Sereno 31 17 43 1019 10 O/NO 13
Ieri h: 18:00 sereno Sereno 31 18 45 1019 10 O/NO 14.8
Ieri h: 17:30 sereno Sereno 31 18 45 1020 10 O 16.7
Ieri h: 17:00 sereno Sereno 31 18 45 1020 10 O 16.7
Ieri h: 16:30 poco_nuvoloso Poco Nuvoloso 31 18 45 1020 10 O 20.3
Ieri h: 16:00 poco_nuvoloso Poco Nuvoloso 31 18 45 1020 10 O 20.3